Pagrindinis puslapis
METAR-TAF:

METAR-TAF

Oro uostai :

Bušehras, Iranas

platuma: 28-59N, ilguma: 050-50E, Aukštis: 19 m

Dabartinis oras

Ataskaita buvo paskelbta 30 minutes, ne 20:00 UTC
Vėjas 6 kt iš Šiaurės
Temperatūra 19°C
Drėgmė 64%
Slėgis 1019 hPa
Matomumas 10 km arba daugiau
nėra debesų žemiau 1500 m ir nėra kamuolinių lietaus debesų

METAR: OIBB 212000Z 36006KT CAVOK 19/12 Q1019 A3009

Laikas: 00:00 (20:30 UTC)

Prognozė

Ataskaita buvo paskelbta 3 valandos ir 20 minutes, ne 17:10 UTC
Prognozė galioja nuo 21 metu 18 UTC su 22 metu 03 UTC
Vėjas 10 kt iš Šiaurės/Šiaurės Vakarų
Matomumas: 8000 m

TAF: OIBB 211710Z 2118/2203 33010KT 8000 NSC

Orai ataskaitas ir orų prognozės (METAR, TAF).

turimą stotys yra geltonos ir raudonos taškus žemėlapyje.

Perkelti pele per norėdami pamatyti stoties vardą.

Tada spustelėkite, norėdami matyti oro stebėjimo ir prognozės.

Norėdami pakeisti žemėlapį: spustelėkite ant žalios mygtukų su juodo kryžiaus žemyn,; žalią mygtuką su brūkšneliu, jei norite nutolinti; arba žalių rodyklių gretimoms žemėlapius.


METAR-TAF: